Time;durP1;ratioP1;P1;durP2;ratioP2;P2;SDS_P1;SDS_P2;PMS_P1;PMS_P2;Temp;Humidity;BMP_temperature;BMP_pressure;BME280_temperature;BME280_humidity;BME280_pressure;Samples;Min_cycle;Max_cycle;Signal;HPM_P1;HPM_P2
2021/12/03 00:00:42;;;;;;;5.83;4.00;;;1.30;99.90;;;;;;4959421;28;20264;-80
2021/12/03 00:03:09;;;;;;;4.40;3.67;;;1.30;99.90;;;;;;4959343;28;20223;-80
2021/12/03 00:05:35;;;;;;;7.70;3.60;;;1.20;99.90;;;;;;4959966;28;20211;-80
2021/12/03 00:08:00;;;;;;;4.73;3.43;;;1.10;99.90;;;;;;4959233;28;20180;-80
2021/12/03 00:10:26;;;;;;;4.57;3.50;;;1.10;99.90;;;;;;4959947;28;20185;-80
2021/12/03 00:12:54;;;;;;;4.10;3.67;;;1.10;99.90;;;;;;4958878;28;20204;-80
2021/12/03 00:15:23;;;;;;;4.77;3.50;;;1.10;99.90;;;;;;4959621;28;20196;-80
2021/12/03 00:17:49;;;;;;;8.40;4.40;;;1.10;99.90;;;;;;4958704;28;20274;-80
2021/12/03 00:20:16;;;;;;;5.40;4.20;;;1.20;99.90;;;;;;4976149;28;20200;-80
2021/12/03 00:22:44;;;;;;;7.07;4.10;;;1.10;99.90;;;;;;4958149;28;20181;-80
2021/12/03 00:25:10;;;;;;;4.53;3.60;;;1.00;99.90;;;;;;4958010;28;20228;-79
2021/12/03 00:27:37;;;;;;;5.20;3.83;;;0.90;99.90;;;;;;4958003;28;20239;-80
2021/12/03 00:30:05;;;;;;;4.93;3.60;;;0.80;99.90;;;;;;4958769;28;20183;-80
2021/12/03 00:32:31;;;;;;;7.10;3.50;;;0.80;99.90;;;;;;4957858;28;20196;-80
2021/12/03 00:34:56;;;;;;;5.43;4.10;;;0.80;99.90;;;;;;4957765;28;20196;-80
2021/12/03 00:37:22;;;;;;;6.67;4.37;;;0.70;99.90;;;;;;4958528;28;20184;-80
2021/12/03 00:39:49;;;;;;;5.97;4.30;;;0.70;99.90;;;;;;4957821;28;20184;-80
2021/12/03 00:42:17;;;;;;;4.87;3.83;;;0.60;99.90;;;;;;4975021;28;20208;-80
2021/12/03 00:44:45;;;;;;;6.90;4.83;;;0.60;99.90;;;;;;4957520;28;20251;-80
2021/12/03 00:47:11;;;;;;;4.63;4.23;;;0.60;99.90;;;;;;4957076;28;20213;-80
2021/12/03 00:49:38;;;;;;;5.97;4.27;;;0.50;99.90;;;;;;4975082;28;20200;-80
2021/12/03 00:52:04;;;;;;;4.87;3.73;;;0.50;99.90;;;;;;4957542;28;20211;-80
2021/12/03 00:54:30;;;;;;;5.13;4.10;;;0.40;99.90;;;;;;4958448;28;20177;-80
2021/12/03 00:56:55;;;;;;;5.73;3.97;;;0.30;99.90;;;;;;4957882;28;20208;-80
2021/12/03 00:59:21;;;;;;;5.87;4.20;;;0.20;99.90;;;;;;4957458;28;20186;-79
2021/12/03 01:01:46;;;;;;;5.77;3.67;;;0.20;99.90;;;;;;4957646;28;20187;-79
2021/12/03 01:04:12;;;;;;;6.07;4.27;;;0.10;99.90;;;;;;4957441;28;20188;-79
2021/12/03 01:06:37;;;;;;;7.27;4.03;;;0.20;99.90;;;;;;4957747;28;20268;-79
2021/12/03 01:09:03;;;;;;;5.93;4.00;;;0.20;99.90;;;;;;4958230;28;20181;-79
2021/12/03 01:11:29;;;;;;;6.70;4.30;;;0.20;99.90;;;;;;4957337;28;20212;-79
2021/12/03 01:13:59;;;;;;;8.97;5.10;;;0.20;99.90;;;;;;4957619;28;20183;-79
2021/12/03 01:16:26;;;;;;;6.43;4.50;;;0.20;99.90;;;;;;4957778;28;20230;-80
2021/12/03 01:18:51;;;;;;;6.83;4.70;;;0.10;99.90;;;;;;4957556;28;20183;-80
2021/12/03 01:21:18;;;;;;;6.67;4.60;;;0.10;99.90;;;;;;4974595;28;20173;-80
2021/12/03 01:23:44;;;;;;;5.47;4.43;;;0.10;99.90;;;;;;4957620;28;20272;-80
2021/12/03 01:26:10;;;;;;;6.43;3.90;;;0.10;99.90;;;;;;4957228;28;20200;-80
2021/12/03 01:28:36;;;;;;;4.50;3.97;;;0.10;99.90;;;;;;4974619;28;20177;-80
2021/12/03 01:31:02;;;;;;;6.37;3.47;;;0.00;99.90;;;;;;4957173;28;20331;-80
2021/12/03 01:33:28;;;;;;;7.73;4.00;;;-0.10;99.90;;;;;;4957454;28;20655;-80
2021/12/03 01:35:54;;;;;;;7.53;4.73;;;-0.20;99.90;;;;;;4974422;28;20197;-80
2021/12/03 01:38:20;;;;;;;9.00;4.87;;;-0.10;99.90;;;;;;4957010;28;20173;-80
2021/12/03 01:40:46;;;;;;;8.20;4.87;;;-0.10;99.90;;;;;;4957457;28;20189;-80
2021/12/03 01:43:19;;;;;;;12.47;7.10;;;-0.10;99.90;;;;;;4974392;28;20181;-80
2021/12/03 01:45:45;;;;;;;10.30;5.60;;;-0.10;99.90;;;;;;4957116;28;20208;-80
2021/12/03 01:48:10;;;;;;;7.03;5.60;;;-0.20;99.90;;;;;;4957096;28;20188;-79
2021/12/03 01:50:40;;;;;;;10.30;6.33;;;-0.20;99.90;;;;;;4957347;28;20248;-79
2021/12/03 01:53:07;;;;;;;8.70;5.90;;;-0.20;99.90;;;;;;4957215;28;20208;-79
2021/12/03 01:55:34;;;;;;;8.60;5.77;;;-0.10;99.90;;;;;;4974244;28;20191;-79
2021/12/03 01:58:00;;;;;;;7.17;5.63;;;0.00;99.90;;;;;;4959935;28;20177;-80
2021/12/03 02:00:32;;;;;;;9.17;6.50;;;0.00;99.90;;;;;;4977629;28;20239;-80
2021/12/03 02:02:59;;;;;;;11.53;7.27;;;0.00;99.90;;;;;;4977822;28;20255;-80
2021/12/03 02:05:25;;;;;;;10.67;6.33;;;0.10;99.90;;;;;;4960402;28;20203;-80
2021/12/03 02:07:51;;;;;;;14.30;9.03;;;0.20;99.90;;;;;;4960480;28;20181;-80
2021/12/03 02:10:19;;;;;;;12.17;7.73;;;0.00;99.90;;;;;;4961130;28;20185;-80
2021/12/03 02:12:45;;;;;;;13.53;7.77;;;0.10;99.90;;;;;;4960287;28;20197;-80
2021/12/03 02:15:12;;;;;;;14.83;6.93;;;0.30;99.90;;;;;;4960295;28;20193;-80
2021/12/03 02:17:38;;;;;;;13.33;8.10;;;0.20;99.90;;;;;;4960387;28;20184;-80
2021/12/03 02:20:07;;;;;;;12.80;8.33;;;0.20;99.90;;;;;;4961061;28;20176;-80
2021/12/03 02:22:32;;;;;;;29.67;9.30;;;0.20;99.90;;;;;;4960161;28;20232;-80
2021/12/03 02:24:58;;;;;;;19.00;8.80;;;0.20;99.90;;;;;;4960388;28;20200;-80
2021/12/03 02:27:24;;;;;;;21.80;8.67;;;0.10;99.90;;;;;;4960058;28;20200;-80
2021/12/03 02:29:49;;;;;;;18.80;8.90;;;0.10;99.90;;;;;;4960087;28;20181;-80
2021/12/03 02:32:15;;;;;;;15.93;8.83;;;0.00;99.90;;;;;;4961076;28;20228;-80
2021/12/03 02:34:40;;;;;;;40.87;8.13;;;0.00;99.90;;;;;;4960237;28;20188;-80
2021/12/03 02:37:06;;;;;;;34.37;7.80;;;-0.10;99.90;;;;;;4960024;28;20180;-80
2021/12/03 02:39:32;;;;;;;18.07;8.10;;;-0.20;99.90;;;;;;4959808;28;20185;-80
2021/12/03 02:41:58;;;;;;;33.83;8.30;;;-0.20;99.90;;;;;;4960011;28;20227;-80
2021/12/03 02:44:24;;;;;;;13.33;8.03;;;-0.20;99.90;;;;;;4960251;28;20184;-80
2021/12/03 02:46:49;;;;;;;21.77;8.57;;;-0.40;99.90;;;;;;4959680;28;20295;-80
2021/12/03 02:49:15;;;;;;;16.30;7.37;;;-0.50;99.90;;;;;;4959796;28;20199;-80
2021/12/03 02:51:42;;;;;;;12.67;7.60;;;-0.60;99.90;;;;;;4960375;28;20212;-80
2021/12/03 02:54:09;;;;;;;11.23;7.17;;;-0.70;99.90;;;;;;4977115;28;20184;-80
2021/12/03 02:56:36;;;;;;;9.60;7.27;;;-0.80;99.90;;;;;;4959568;28;20256;-80
2021/12/03 02:59:02;;;;;;;9.90;7.27;;;-0.90;99.90;;;;;;4959957;28;20586;-80
2021/12/03 03:01:27;;;;;;;12.80;7.50;;;-1.00;99.90;;;;;;4960303;28;20185;-80
2021/12/03 03:03:53;;;;;;;11.53;7.07;;;-1.00;99.90;;;;;;4959376;28;20251;-80
2021/12/03 03:06:19;;;;;;;7.50;5.37;;;-1.10;99.90;;;;;;4959271;28;20208;-80
2021/12/03 03:08:47;;;;;;;8.20;6.27;;;-1.30;99.90;;;;;;4958536;28;20185;-80
2021/12/03 03:11:12;;;;;;;7.63;5.67;;;-1.30;99.90;;;;;;4959228;28;20187;-80
2021/12/03 03:13:38;;;;;;;9.17;6.77;;;-1.30;99.90;;;;;;4959592;28;20263;-80
2021/12/03 03:16:05;;;;;;;8.87;6.07;;;-1.20;99.90;;;;;;4976692;28;20241;-80
2021/12/03 03:18:31;;;;;;;7.87;5.83;;;-1.20;99.90;;;;;;4959209;28;20173;-80
2021/12/03 03:20:59;;;;;;;9.47;7.10;;;-1.10;99.90;;;;;;4959326;28;20648;-80
2021/12/03 03:23:25;;;;;;;9.20;6.00;;;-1.10;99.90;;;;;;4976256;28;20184;-80
2021/12/03 03:25:51;;;;;;;8.87;6.37;;;-1.10;99.90;;;;;;4959468;28;20201;-80
2021/12/03 03:28:18;;;;;;;9.17;6.77;;;-1.10;99.90;;;;;;4959353;28;20192;-80
2021/12/03 03:30:46;;;;;;;8.63;6.87;;;-1.20;99.90;;;;;;4959592;28;20181;-80
2021/12/03 03:33:12;;;;;;;10.80;6.50;;;-1.30;99.90;;;;;;4959689;28;20212;-80
2021/12/03 03:35:38;;;;;;;11.13;6.13;;;-1.40;99.90;;;;;;4959166;28;20223;-80
2021/12/03 03:38:04;;;;;;;9.23;6.30;;;-1.40;99.90;;;;;;4976159;28;20739;-80
2021/12/03 03:40:30;;;;;;;8.77;6.83;;;-1.30;99.90;;;;;;4958837;28;20187;-80
2021/12/03 03:43:01;;;;;;;8.37;6.00;;;-1.30;99.90;;;;;;4976010;28;20192;-79
2021/12/03 03:45:27;;;;;;;8.63;6.10;;;-1.30;99.90;;;;;;4958831;28;20304;-79
2021/12/03 03:47:53;;;;;;;9.57;6.40;;;-1.30;99.90;;;;;;4975882;28;20177;-79
2021/12/03 03:50:20;;;;;;;7.90;5.67;;;-1.20;99.90;;;;;;4958569;28;20185;-79
2021/12/03 03:52:48;;;;;;;6.07;5.33;;;-1.20;99.90;;;;;;4958403;28;20233;-79
2021/12/03 03:55:14;;;;;;;10.20;6.03;;;-1.30;99.90;;;;;;4974844;28;20193;-79
2021/12/03 03:57:41;;;;;;;7.73;6.00;;;-1.40;99.90;;;;;;4958406;28;20173;-79
2021/12/03 04:00:10;;;;;;;7.57;5.90;;;-1.50;99.90;;;;;;4958702;28;20181;-79
2021/12/03 04:02:35;;;;;;;10.73;6.23;;;-1.50;99.90;;;;;;4975810;28;20185;-79
2021/12/03 04:05:01;;;;;;;9.50;7.00;;;-1.40;99.90;;;;;;4958968;28;20544;-79
2021/12/03 04:07:27;;;;;;;20.50;11.13;;;-1.50;99.90;;;;;;4958620;28;20187;-79
2021/12/03 04:09:52;;;;;;;16.30;10.13;;;-1.60;99.90;;;;;;4975762;28;20180;-79
2021/12/03 04:12:18;;;;;;;11.67;7.50;;;-1.70;99.90;;;;;;4974227;28;20207;-79
2021/12/03 04:14:43;;;;;;;62.03;42.87;;;-1.70;99.90;;;;;;4958355;28;20177;-79
2021/12/03 04:17:09;;;;;;;28.83;20.50;;;-1.80;99.90;;;;;;4974223;28;20268;-79
2021/12/03 04:19:36;;;;;;;18.73;13.73;;;-1.90;99.90;;;;;;4973930;28;20272;-79
2021/12/03 04:22:02;;;;;;;21.57;14.17;;;-1.80;99.90;;;;;;4975224;28;20209;-79
2021/12/03 04:24:28;;;;;;;16.13;11.57;;;-1.80;99.90;;;;;;4975216;28;20196;-79
2021/12/03 04:26:54;;;;;;;14.97;8.53;;;-1.70;99.90;;;;;;4974315;28;20271;-79
2021/12/03 04:29:19;;;;;;;8.37;6.63;;;-1.70;99.90;;;;;;4957823;28;20185;-80
2021/12/03 04:31:45;;;;;;;8.83;6.67;;;-1.80;99.90;;;;;;4958069;28;20223;-80
2021/12/03 04:34:11;;;;;;;6.07;5.47;;;-1.90;99.90;;;;;;4957787;28;20173;-80
2021/12/03 04:36:36;;;;;;;9.43;6.90;;;-1.80;99.90;;;;;;4957703;28;20197;-80
2021/12/03 04:39:03;;;;;;;9.70;7.50;;;-1.80;99.90;;;;;;4975008;28;20184;-80
2021/12/03 04:41:29;;;;;;;9.67;6.97;;;-1.80;99.90;;;;;;4958568;28;20185;-80
2021/12/03 04:43:54;;;;;;;10.30;7.30;;;-1.80;99.90;;;;;;4957815;28;20200;-80
2021/12/03 04:46:22;;;;;;;18.43;12.53;;;-1.70;99.90;;;;;;4959983;28;20207;-80
2021/12/03 04:48:48;;;;;;;15.33;10.77;;;-1.80;99.90;;;;;;4976453;28;20263;-80
2021/12/03 04:51:13;;;;;;;9.93;7.53;;;-1.80;99.90;;;;;;4977397;28;20176;-80
2021/12/03 04:53:39;;;;;;;8.73;7.20;;;-1.80;99.90;;;;;;4960204;28;20176;-80
2021/12/03 04:56:05;;;;;;;9.93;6.87;;;-1.60;99.90;;;;;;4960197;28;20200;-80
2021/12/03 04:58:31;;;;;;;10.10;6.57;;;-1.70;99.90;;;;;;4960705;28;20259;-80
2021/12/03 05:00:58;;;;;;;8.43;5.87;;;-1.80;99.90;;;;;;4961138;28;20271;-80
2021/12/03 05:03:25;;;;;;;8.57;5.20;;;-1.80;99.90;;;;;;4978867;28;20203;-80
2021/12/03 05:05:57;;;;;;;10.00;6.47;;;-1.90;99.90;;;;;;4961556;28;20201;-80
2021/12/03 05:08:27;;;;;;;9.20;6.40;;;-1.80;99.90;;;;;;4961501;28;20184;-80
2021/12/03 05:10:54;;;;;;;8.13;6.20;;;-1.80;99.90;;;;;;4978856;28;20188;-80
2021/12/03 05:13:28;;;;;;;8.53;6.33;;;-1.90;99.90;;;;;;4960988;28;20205;-80
2021/12/03 05:15:54;;;;;;;16.43;9.37;;;-1.90;99.90;;;;;;4961204;28;20216;-80
2021/12/03 05:18:23;;;;;;;22.23;10.47;;;-1.90;99.90;;;;;;4961956;28;20628;-81
2021/12/03 05:20:51;;;;;;;45.07;18.20;;;-1.90;99.90;;;;;;4977560;28;20181;-81
2021/12/03 05:23:18;;;;;;;27.37;13.00;;;-1.90;99.90;;;;;;4977101;28;20212;-80
2021/12/03 05:25:43;;;;;;;25.40;11.90;;;-1.90;99.90;;;;;;4976715;28;20204;-80
2021/12/03 05:28:09;;;;;;;15.17;8.83;;;-1.90;99.90;;;;;;4976543;28;20191;-81
2021/12/03 05:30:36;;;;;;;14.60;6.43;;;-2.10;99.90;;;;;;4961217;28;20185;-80
2021/12/03 05:33:03;;;;;;;12.37;6.73;;;-2.20;99.90;;;;;;4962684;28;20196;-80
2021/12/03 05:35:29;;;;;;;11.87;7.23;;;-2.30;99.90;;;;;;4964396;28;20197;-81
2021/12/03 05:37:59;;;;;;;9.97;6.73;;;-2.30;99.90;;;;;;4981471;28;20176;-80
2021/12/03 05:40:25;;;;;;;11.30;6.60;;;-2.30;99.90;;;;;;4963898;28;20177;-80
2021/12/03 05:42:50;;;;;;;10.00;7.20;;;-2.20;99.90;;;;;;4964056;28;20183;-80
2021/12/03 05:45:28;;;;;;;9.90;7.00;;;-2.20;99.90;;;;;;4963596;28;20208;-80
2021/12/03 05:47:55;;;;;;;8.47;6.53;;;-2.30;99.90;;;;;;4980566;28;20172;-81
2021/12/03 05:50:21;;;;;;;9.73;6.20;;;-2.20;99.90;;;;;;4964087;28;20189;-80
2021/12/03 05:52:48;;;;;;;10.60;6.43;;;-2.30;99.90;;;;;;4962150;28;20205;-80
2021/12/03 05:55:14;;;;;;;10.43;6.37;;;-2.20;99.90;;;;;;4962180;28;20243;-80
2021/12/03 05:57:41;;;;;;;12.60;7.23;;;-2.10;99.90;;;;;;4964572;28;20177;-80
2021/12/03 06:00:11;;;;;;;10.23;6.93;;;-2.20;99.90;;;;;;4965086;28;20192;-80
2021/12/03 06:02:37;;;;;;;12.73;7.70;;;-2.10;99.90;;;;;;4964101;28;20197;-80
2021/12/03 06:05:03;;;;;;;11.97;7.77;;;-2.00;99.90;;;;;;4964797;28;20216;-80
2021/12/03 06:07:28;;;;;;;12.03;8.53;;;-2.00;99.90;;;;;;4964672;28;20195;-80
2021/12/03 06:09:54;;;;;;;10.10;6.63;;;-2.10;99.90;;;;;;4964324;28;20180;-81
2021/12/03 06:12:19;;;;;;;11.13;6.93;;;-2.00;99.90;;;;;;4964030;28;20273;-81
2021/12/03 06:14:45;;;;;;;11.87;7.60;;;-2.10;99.90;;;;;;4963648;28;20288;-81
2021/12/03 06:17:13;;;;;;;12.93;8.60;;;-2.10;99.90;;;;;;4963807;28;20180;-80
2021/12/03 06:19:40;;;;;;;8.60;6.83;;;-2.10;99.90;;;;;;4963309;28;20203;-81
2021/12/03 06:22:06;;;;;;;12.23;7.80;;;-2.20;99.90;;;;;;4963387;28;20239;-81
2021/12/03 06:24:32;;;;;;;12.00;7.57;;;-2.10;99.90;;;;;;4965996;28;20195;-81
2021/12/03 06:26:57;;;;;;;12.40;8.03;;;-2.20;99.90;;;;;;4965445;28;20275;-81
2021/12/03 06:29:23;;;;;;;9.40;6.77;;;-2.20;99.90;;;;;;4965517;28;20205;-81
2021/12/03 06:31:49;;;;;;;8.43;6.13;;;-2.30;99.90;;;;;;4964585;28;20212;-81
2021/12/03 06:34:14;;;;;;;8.67;6.70;;;-2.30;99.90;;;;;;4963913;28;20180;-82
2021/12/03 06:36:40;;;;;;;9.37;6.43;;;-2.30;99.90;;;;;;4962891;28;20192;-81
2021/12/03 06:39:16;;;;;;;12.03;6.37;;;-2.40;99.90;;;;;;4961425;28;20181;-78
2021/12/03 06:41:42;;;;;;;10.60;6.53;;;-2.40;99.90;;;;;;4960342;28;20181;-78
2021/12/03 06:44:08;;;;;;;12.87;8.37;;;-2.40;99.90;;;;;;4959340;28;20196;-78
2021/12/03 06:46:35;;;;;;;15.70;9.00;;;-2.50;99.90;;;;;;4960732;28;20208;-78
2021/12/03 06:49:01;;;;;;;76.87;39.03;;;-2.40;99.90;;;;;;4960171;28;20185;-78
2021/12/03 06:51:28;;;;;;;57.37;30.33;;;-2.30;99.90;;;;;;4977605;28;20201;-78
2021/12/03 06:53:57;;;;;;;49.60;28.63;;;-2.20;99.90;;;;;;4975837;28;20720;-82
2021/12/03 06:56:31;;;;;;;71.63;36.83;;;-2.10;99.90;;;;;;4977642;28;20189;-78
2021/12/03 06:58:57;;;;;;;96.87;46.93;;;-2.00;99.90;;;;;;4976793;28;20172;-78
2021/12/03 07:01:22;;;;;;;76.43;38.83;;;-1.90;99.90;;;;;;4976979;28;20173;-79
2021/12/03 07:03:48;;;;;;;61.70;32.57;;;-1.90;99.90;;;;;;4975759;28;20201;-78
2021/12/03 07:06:13;;;;;;;42.70;24.67;;;-1.90;99.90;;;;;;4975559;28;20212;-78
2021/12/03 07:08:39;;;;;;;44.97;26.60;;;-1.90;99.90;;;;;;4976008;28;20184;-78
2021/12/03 07:11:04;;;;;;;38.27;21.40;;;-1.80;99.90;;;;;;4975475;28;20644;-78
2021/12/03 07:13:31;;;;;;;29.43;17.13;;;-1.70;99.90;;;;;;4975520;28;20220;-78
2021/12/03 07:15:58;;;;;;;26.93;16.87;;;-1.70;99.90;;;;;;4977380;28;20283;-78
2021/12/03 07:18:23;;;;;;;25.97;15.23;;;-1.60;99.90;;;;;;4976186;28;20236;-78
2021/12/03 07:20:50;;;;;;;21.60;14.27;;;-1.60;99.90;;;;;;4976730;28;20181;-78
2021/12/03 07:23:15;;;;;;;21.23;14.03;;;-1.50;99.90;;;;;;4976200;28;20173;-78
2021/12/03 07:25:41;;;;;;;17.23;10.83;;;-1.50;99.90;;;;;;4976128;28;20207;-78
2021/12/03 07:28:07;;;;;;;14.07;9.50;;;-1.40;99.90;;;;;;4975313;28;20703;-78
2021/12/03 07:30:33;;;;;;;14.70;9.67;;;-1.30;99.90;;;;;;4959119;28;20176;-78
2021/12/03 07:32:58;;;;;;;13.57;9.63;;;-1.20;99.90;;;;;;4959128;28;20284;-78
2021/12/03 07:35:24;;;;;;;14.43;9.93;;;-1.10;99.90;;;;;;4959145;28;20228;-78
2021/12/03 07:37:50;;;;;;;12.80;9.07;;;-1.00;99.90;;;;;;4959221;28;20217;-78
2021/12/03 07:40:15;;;;;;;11.47;8.57;;;-0.90;99.90;;;;;;4959693;28;20204;-78
2021/12/03 07:42:42;;;;;;;11.23;8.90;;;-0.80;99.90;;;;;;4958751;28;20266;-78
2021/12/03 07:45:09;;;;;;;20.10;14.30;;;-0.70;99.90;;;;;;4958630;28;20220;-78
2021/12/03 07:47:36;;;;;;;18.17;11.70;;;-0.70;99.90;;;;;;4974941;28;20181;-78
2021/12/03 07:50:03;;;;;;;12.93;9.40;;;-0.60;99.90;;;;;;4975660;28;20184;-78
2021/12/03 07:52:28;;;;;;;12.07;9.50;;;-0.50;99.90;;;;;;4959162;28;20236;-78
2021/12/03 07:54:54;;;;;;;14.13;10.13;;;-0.40;99.90;;;;;;4976017;28;20204;-78
2021/12/03 07:57:19;;;;;;;28.10;17.33;;;-0.30;99.90;;;;;;4974945;28;20176;-78
2021/12/03 07:59:45;;;;;;;20.83;14.83;;;-0.20;99.90;;;;;;4975272;28;20275;-77
2021/12/03 08:02:11;;;;;;;16.67;11.03;;;0.00;99.90;;;;;;4974688;28;20181;-78
2021/12/03 08:04:36;;;;;;;12.00;9.50;;;0.20;99.90;;;;;;4975577;28;20188;-78
2021/12/03 08:07:02;;;;;;;10.53;8.00;;;0.40;99.90;;;;;;4958212;28;20180;-78
2021/12/03 08:09:28;;;;;;;9.43;7.97;;;0.50;99.90;;;;;;4958189;28;20176;-78
2021/12/03 08:11:54;;;;;;;12.53;8.73;;;0.70;99.90;;;;;;4975356;28;20263;-78
2021/12/03 08:14:20;;;;;;;15.30;8.70;;;0.80;99.90;;;;;;4958286;28;20176;-78
2021/12/03 08:16:45;;;;;;;9.50;7.83;;;0.90;99.90;;;;;;4958018;28;20201;-78
2021/12/03 08:19:11;;;;;;;11.07;7.60;;;1.00;99.90;;;;;;4958396;28;20181;-78
2021/12/03 08:21:37;;;;;;;9.37;7.53;;;1.00;99.90;;;;;;4958050;28;20216;-78
2021/12/03 08:24:02;;;;;;;10.00;7.53;;;1.00;99.90;;;;;;4958034;28;20181;-78
2021/12/03 08:26:29;;;;;;;8.13;7.23;;;1.00;99.90;;;;;;4975252;28;20400;-78
2021/12/03 08:28:55;;;;;;;8.40;7.30;;;1.00;99.90;;;;;;4958123;28;20180;-78
2021/12/03 08:31:21;;;;;;;8.80;7.90;;;1.00;99.90;;;;;;4975404;28;20231;-78
2021/12/03 08:33:48;;;;;;;9.50;7.80;;;1.00;99.90;;;;;;4958321;28;20300;-78
2021/12/03 08:36:14;;;;;;;8.80;7.90;;;0.90;99.90;;;;;;4957874;28;20280;-78
2021/12/03 08:38:41;;;;;;;9.37;7.97;;;0.90;99.90;;;;;;4957890;28;20252;-78
2021/12/03 08:41:08;;;;;;;9.63;7.37;;;0.90;99.90;;;;;;4958069;28;20196;-78
2021/12/03 08:43:33;;;;;;;9.63;7.33;;;0.90;99.90;;;;;;4958179;28;20196;-78
2021/12/03 08:46:07;;;;;;;8.77;6.90;;;0.90;99.90;;;;;;4958234;28;20197;-78
2021/12/03 08:48:37;;;;;;;8.47;7.53;;;0.90;99.90;;;;;;4958154;28;20235;-78
2021/12/03 08:51:11;;;;;;;9.13;7.40;;;0.80;99.90;;;;;;4957884;28;20267;-78
2021/12/03 08:56:21;;;;;;;9.80;8.03;;;0.80;99.90;;;;;;4975372;28;20203;-78
2021/12/03 08:58:46;;;;;;;10.80;8.60;;;0.80;99.90;;;;;;4957727;28;20181;-78
2021/12/03 09:01:13;;;;;;;9.37;7.90;;;0.80;99.90;;;;;;4957637;28;20177;-78
2021/12/03 09:03:39;;;;;;;10.33;8.20;;;0.90;99.90;;;;;;4974732;28;20181;-78
2021/12/03 09:06:06;;;;;;;9.90;7.97;;;1.00;99.90;;;;;;4956876;28;20208;-78
2021/12/03 09:08:31;;;;;;;11.23;8.53;;;1.20;99.90;;;;;;4974800;28;20173;-78
2021/12/03 09:10:57;;;;;;;11.13;8.50;;;1.40;99.90;;;;;;4958527;28;20308;-78
2021/12/03 09:16:49;;;;;;;9.67;7.70;;;1.70;99.90;;;;;;4974714;28;20199;-78
2021/12/03 09:19:22;;;;;;;10.43;7.20;;;1.70;99.90;;;;;;4957365;28;20185;-78
2021/12/03 09:21:48;;;;;;;9.67;8.27;;;1.70;99.90;;;;;;4957342;28;20208;-78
2021/12/03 09:24:17;;;;;;;10.90;8.33;;;1.50;99.90;;;;;;4957337;28;20205;-78
2021/12/03 09:26:43;;;;;;;10.67;7.90;;;1.40;99.90;;;;;;4957239;28;20201;-78
2021/12/03 09:29:12;;;;;;;11.90;9.13;;;1.40;99.90;;;;;;4974842;28;20177;-78
2021/12/03 09:31:42;;;;;;;14.57;10.87;;;1.50;99.90;;;;;;4957042;28;20209;-78
2021/12/03 09:34:10;;;;;;;10.97;9.50;;;1.50;99.90;;;;;;4974107;28;20204;-78
2021/12/03 09:36:41;;;;;;;13.83;9.63;;;1.70;99.90;;;;;;4957307;28;20288;-78
2021/12/03 09:39:15;;;;;;;11.03;9.77;;;1.80;99.90;;;;;;4957121;28;20173;-78
2021/12/03 09:41:41;;;;;;;11.03;8.30;;;2.00;99.90;;;;;;4974369;28;20581;-78
2021/12/03 09:44:07;;;;;;;8.70;7.30;;;2.20;99.90;;;;;;4957055;28;20212;-78
2021/12/03 09:46:32;;;;;;;8.20;7.03;;;2.30;99.90;;;;;;4957107;28;20205;-78
2021/12/03 09:51:59;;;;;;;11.27;8.40;;;2.40;99.90;;;;;;4974510;28;20182;-77
2021/12/03 09:56:56;;;;;;;11.60;8.70;;;2.50;99.90;;;;;;4974094;28;20227;-77
2021/12/03 09:59:57;;;;;;;9.53;7.87;;;2.40;99.90;;;;;;4957359;28;20177;-77
2021/12/03 10:02:41;;;;;;;9.07;8.17;;;2.60;99.90;;;;;;4973957;28;20219;-77
2021/12/03 10:13:26;;;;;;;9.40;8.43;;;2.70;99.90;;;;;;4974103;28;20208;-85
2021/12/03 10:16:10;;;;;;;12.37;8.23;;;2.70;99.90;;;;;;4956832;28;20204;-82
2021/12/03 10:18:44;;;;;;;9.63;8.40;;;2.70;99.90;;;;;;4958602;28;20176;-80
2021/12/03 10:21:36;;;;;;;10.50;8.60;;;2.70;99.90;;;;;;4961467;28;20187;-77
2021/12/03 10:27:34;;;;;;;10.70;8.53;;;2.80;99.90;;;;;;4978025;28;20214;-78
2021/12/03 10:31:16;;;;;;;9.13;7.30;;;2.80;99.90;;;;;;4961107;28;20289;-78
